Map

Track Data

SID SEASON NUMBER BASIN SUBBASIN NAME ISO_TIME NATURE LAT LON WMO_WIND WMO_PRES WMO_AGENCY TRACK_TYPE DIST2LAND LANDFALL IFLAG USA_AGENCY USA_ATCF_ID USA_LAT USA_LON USA_RECORD USA_STATUS USA_WIND USA_PRES USA_SSHS USA_R34_NE USA_R34_SE USA_R34_SW USA_R34_NW USA_R50_NE USA_R50_SE USA_R50_SW USA_R50_NW USA_R64_NE USA_R64_SE USA_R64_SW USA_R64_NW USA_POCI USA_ROCI USA_RMW USA_EYE TOKYO_LAT TOKYO_LON TOKYO_GRADE TOKYO_WIND TOKYO_PRES TOKYO_R50_DIR TOKYO_R50_LONG TOKYO_R50_SHORT TOKYO_R30_DIR TOKYO_R30_LONG TOKYO_R30_SHORT TOKYO_LAND CMA_LAT CMA_LON CMA_CAT CMA_WIND CMA_PRES HKO_LAT HKO_LON HKO_CAT HKO_WIND HKO_PRES NEWDELHI_LAT NEWDELHI_LON NEWDELHI_GRADE NEWDELHI_WIND NEWDELHI_PRES NEWDELHI_CI NEWDELHI_DP NEWDELHI_POCI REUNION_LAT REUNION_LON REUNION_TYPE REUNION_WIND REUNION_PRES REUNION_TNUM REUNION_CI REUNION_RMW REUNION_R34_NE REUNION_R34_SE REUNION_R34_SW REUNION_R34_NW REUNION_R50_NE REUNION_R50_SE REUNION_R50_SW REUNION_R50_NW REUNION_R64_NE REUNION_R64_SE REUNION_R64_SW REUNION_R64_NW BOM_LAT BOM_LON BOM_TYPE BOM_WIND BOM_PRES BOM_TNUM BOM_CI BOM_RMW BOM_R34_NE BOM_R34_SE BOM_R34_SW BOM_R34_NW BOM_R50_NE BOM_R50_SE BOM_R50_SW BOM_R50_NW BOM_R64_NE BOM_R64_SE BOM_R64_SW BOM_R64_NW BOM_ROCI BOM_POCI BOM_EYE BOM_POS_METHOD BOM_PRES_METHOD NADI_LAT NADI_LON NADI_CAT NADI_WIND NADI_PRES WELLINGTON_LAT WELLINGTON_LON WELLINGTON_WIND WELLINGTON_PRES DS824_LAT DS824_LON DS824_STAGE DS824_WIND DS824_PRES TD9636_LAT TD9636_LON TD9636_STAGE TD9636_WIND TD9636_PRES TD9635_LAT TD9635_LON TD9635_WIND TD9635_PRES TD9635_ROCI NEUMANN_LAT NEUMANN_LON NEUMANN_CLASS NEUMANN_WIND NEUMANN_PRES MLC_LAT MLC_LON MLC_CLASS MLC_WIND MLC_PRES USA_GUST BOM_GUST BOM_GUST_PER REUNION_GUST REUNION_GUST_PER USA_SEAHGT USA_SEARAD_NE USA_SEARAD_SE USA_SEARAD_SW USA_SEARAD_NW STORM_SPEED STORM_DIR
1970178N16260 1970 56 EP MM EILEEN 1970-06-26 12:00:00 TS 15.5000 -99.9000 25 hurdat_epa main 135 135 O________OO___ hurdat_epa EP041970 15.5000 -99.9000 TD 25 -1 15.5000 -99.9000 TC 25 15.5000 -99.9000 1 5 281
1970178N16260 1970 56 EP MM EILEEN 1970-06-26 15:00:00 TS 15.5484 -100.153 main 144 134 P________PP___ EP041970 15.5526 -100.162 TD 25 -1 15.5526 -100.162 TC 25 15.5314 -100.116 1 5 281
1970178N16260 1970 56 EP MM EILEEN 1970-06-26 18:00:00 TS 15.5940 -100.387 25 hurdat_epa main 144 144 O________OP___ hurdat_epa EP041970 15.6000 -100.400 TD 25 -1 15.6000 -100.400 TC 25 15.5702 -100.335 1 4 282
1970178N16260 1970 56 EP MM EILEEN 1970-06-26 21:00:00 TS 15.6387 -100.592 main 156 147 P________PP___ EP041970 15.6424 -100.600 TD 25 -1 15.6424 -100.600 TC 25 15.6238 -100.562 1 4 285
1970178N16260 1970 56 EP MM EILEEN 1970-06-27 00:00:00 TS 15.7000 -100.800 25 hurdat_epa main 158 151 O________OO___ hurdat_epa EP041970 15.7000 -100.800 TD 25 -1 15.7000 -100.800 TC 25 15.7000 -100.800 1 5 289
1970178N16260 1970 56 EP MM EILEEN 1970-06-27 03:00:00 TS 15.7886 -101.039 main 154 151 P________PP___ EP041970 15.7850 -101.035 TD 25 -1 15.7850 -101.035 TC 25 15.8033 -101.052 1 5 293
1970178N16260 1970 56 EP MM EILEEN 1970-06-27 06:00:00 TS 15.9055 -101.304 25 hurdat_epa main 154 148 O________OP___ hurdat_epa EP041970 15.9000 -101.300 TD 25 -1 15.9000 -101.300 TC 25 15.9273 -101.320 1 6 296
1970178N16260 1970 56 EP MM EILEEN 1970-06-27 09:00:00 TS 16.0525 -101.594 main 144 143 P________PP___ EP041970 16.0500 -101.592 TD 25 -1 16.0500 -101.592 TC 25 16.0627 -101.603 1 6 297
1970178N16260 1970 56 EP MM EILEEN 1970-06-27 12:00:00 TS 16.2000 -101.900 25 hurdat_epa main 149 147 O________OO___ hurdat_epa EP041970 16.2000 -101.900 TD 25 -1 16.2000 -101.900 TC 25 16.2000 -101.900 2 6 293
1970178N16260 1970 56 EP MM EILEEN 1970-06-27 15:00:00 TS 16.2927 -102.192 main 161 161 P________PP___ EP041970 16.2999 -102.193 TD 27 -1 16.2999 -102.193 TC 27 16.2638 -102.191 2 6 288
1970178N16260 1970 56 EP MM EILEEN 1970-06-27 18:00:00 TS 16.3874 -102.500 30 hurdat_epa main 168 162 O________OP___ hurdat_epa EP041970 16.4000 -102.500 TD 30 -1 16.4000 -102.500 TC 30 16.3371 -102.499 2 6 288
1970178N16260 1970 56 EP MM EILEEN 1970-06-27 21:00:00 TS 16.4912 -102.823 main 165 154 P________PP___ EP041970 16.4974 -102.820 TD 32 -1 16.4974 -102.820 TC 32 16.4668 -102.832 2 7 295
1970178N16260 1970 56 EP MM EILEEN 1970-06-28 00:00:00 TS 16.7000 -103.200 35 hurdat_epa main 158 134 O________OO___ hurdat_epa EP041970 16.7000 -103.200 TS 35 0 16.7000 -103.200 TC 35 16.7000 -103.200 2 10 306
1970178N16260 1970 56 EP MM EILEEN 1970-06-28 03:00:00 TS 17.0850 -103.681 main 134 107 P________PP___ EP041970 17.0901 -103.692 TS 37 0 17.0901 -103.692 TC 37 17.0642 -103.634 2 13 313
1970178N16260 1970 56 EP MM EILEEN 1970-06-28 06:00:00 TS 17.5871 -104.180 40 hurdat_epa main 107 101 O________OP___ hurdat_epa EP041970 17.6000 -104.200 TS 40 0 17.6000 -104.200 TC 40 17.5357 -104.099 2 14 320
1970178N16260 1970 56 EP MM EILEEN 1970-06-28 09:00:00 TS 18.1136 -104.594 main 105 59 P________PP___ EP041970 18.1197 -104.601 TS 40 0 18.1197 -104.601 TC 40 18.0893 -104.565 2 14 325
1970178N16260 1970 56 EP MM EILEEN 1970-06-28 12:00:00 TS 18.7000 -105.000 40 hurdat_epa main 59 46 O________OO___ hurdat_epa EP041970 18.7000 -105.000 TS 40 0 18.7000 -105.000 TC 40 18.7000 -105.000 2 15 324
1970178N16260 1970 56 EP MM EILEEN 1970-06-28 15:00:00 TS 19.3337 -105.521 main 49 38 P________PP___ EP041970 19.3278 -105.537 TS 40 0 19.3278 -105.537 TC 40 19.3571 -105.456 2 16 325
1970178N16260 1970 56 EP MM EILEEN 1970-06-28 18:00:00 TS 20.0115 -105.973 40 hurdat_epa main 52 41 O________OP___ hurdat_epa EP041970 20.0000 -106.000 TS 40 0 20.0000 -106.000 TC 40 20.0574 -105.864 2 16 334
1970178N16260 1970 56 EP MM EILEEN 1970-06-28 21:00:00 TS 20.7226 -106.243 main 61 61 P________PP___ EP041970 20.7147 -106.262 TS 40 0 20.7147 -106.262 TC 40 20.7539 -106.165 2 14 348
1970178N16260 1970 56 EP MM EILEEN 1970-06-29 00:00:00 TS 21.4000 -106.300 40 hurdat_epa main 94 61 O________OO___ hurdat_epa EP041970 21.4000 -106.300 TS 40 0 21.4000 -106.300 TC 40 21.4000 -106.300 2 13 4
1970178N16260 1970 56 EP MM EILEEN 1970-06-29 03:00:00 TS 21.9882 -106.140 main 51 0 P________PP___ EP041970 21.9950 -106.118 TS 37 0 21.9950 -106.118 TC 37 21.9608 -106.227 2 12 22
1970178N16260 1970 56 EP MM EILEEN 1970-06-29 06:00:00 TS 22.4919 -105.829 35 hurdat_epa main 0 0 O________OP___ hurdat_epa EP041970 22.5000 -105.800 TS 35 0 22.5000 -105.800 TC 35 22.4485 -105.982 2 11 32
1970178N16260 1970 56 EP MM EILEEN 1970-06-29 09:00:00 TS 22.9453 -105.500 main 0 0 P________PP___ EP041970 22.9526 -105.485 TS 30 -1 22.9526 -105.485 TC 30 22.8870 -105.621 2 10 36
1970178N16260 1970 56 EP MM EILEEN 1970-06-29 12:00:00 TS 23.3000 -105.200 25 hurdat_epa main 0 0 O________OO___ hurdat_epa EP041970 23.3000 -105.200 TD 25 -1 23.3000 -105.200 TC 25 23.3000 -105.200 6 7 36
1970178N16260 1970 56 EP MM EILEEN 1970-06-29 15:00:00 TS 23.5374 -105.035 main 0 0 P________P____ EP041970 23.5374 -105.035 TD 25 -1 23.5374 -105.035 TC 25 6 5 34
1970178N16260 1970 56 EP MM EILEEN 1970-06-29 18:00:00 MX 23.7000 -104.900 25 hurdat_epa main 0 0 O________O____ hurdat_epa EP041970 23.7000 -104.900 TD 25 -1 23.7000 -104.900 25 6 4 43
1970178N16260 1970 56 EP MM EILEEN 1970-06-29 21:00:00 MX 23.8501 -104.718 main 0 0 P________P____ EP041970 23.8501 -104.718 TD 25 -1 23.8501 -104.718 25 6 5 50
1970178N16260 1970 56 EP MM EILEEN 1970-06-30 00:00:00 MX 24.0000 -104.500 25 hurdat_epa main 0 O________O____ hurdat_epa EP041970 24.0000 -104.500 TD 25 -1 24.0000 -104.500 25 5 53

About IBTrACS Database

This database is a web-friendly format of International Best Track Archive for Climate Stewardship (IBTrACS), a global best track data archive curated by NOAA dating back to 1842.

Updated: 2021-10-21